sensor_id;sensor_type;location;lat;lon;timestamp;P1;durP1;ratioP1;P2;durP2;ratioP2
19087;SDS011;9676;50.916;13.352;2023-08-30T00:00:49;9.70;;;8.90;;
19087;SDS011;9676;50.916;13.352;2023-08-30T00:03:38;9.70;;;8.90;;
19087;SDS011;9676;50.916;13.352;2023-08-30T00:06:28;9.70;;;8.90;;
19087;SDS011;9676;50.916;13.352;2023-08-30T00:09:19;9.87;;;9.07;;
19087;SDS011;9676;50.916;13.352;2023-08-30T00:12:10;9.90;;;9.10;;
19087;SDS011;9676;50.916;13.352;2023-08-30T00:14:59;10.20;;;9.30;;
19087;SDS011;9676;50.916;13.352;2023-08-30T00:17:49;9.87;;;9.07;;
19087;SDS011;9676;50.916;13.352;2023-08-30T00:20:40;9.90;;;9.10;;
19087;SDS011;9676;50.916;13.352;2023-08-30T00:23:29;9.90;;;9.00;;
19087;SDS011;9676;50.916;13.352;2023-08-30T00:26:19;10.17;;;9.17;;
19087;SDS011;9676;50.916;13.352;2023-08-30T00:29:09;9.83;;;9.03;;
19087;SDS011;9676;50.916;13.352;2023-08-30T00:31:59;10.23;;;9.33;;
19087;SDS011;9676;50.916;13.352;2023-08-30T00:34:49;9.60;;;8.80;;
19087;SDS011;9676;50.916;13.352;2023-08-30T00:37:39;10.00;;;9.20;;
19087;SDS011;9676;50.916;13.352;2023-08-30T00:40:29;9.90;;;9.10;;
19087;SDS011;9676;50.916;13.352;2023-08-30T00:43:26;9.80;;;9.00;;
19087;SDS011;9676;50.916;13.352;2023-08-30T00:46:17;10.00;;;9.10;;
19087;SDS011;9676;50.916;13.352;2023-08-30T00:49:06;9.90;;;9.07;;
19087;SDS011;9676;50.916;13.352;2023-08-30T00:51:56;10.03;;;9.17;;
19087;SDS011;9676;50.916;13.352;2023-08-30T00:54:49;10.03;;;9.13;;
19087;SDS011;9676;50.916;13.352;2023-08-30T00:57:38;10.00;;;9.10;;
19087;SDS011;9676;50.916;13.352;2023-08-30T01:00:28;10.43;;;9.53;;
19087;SDS011;9676;50.916;13.352;2023-08-30T01:03:20;10.40;;;9.40;;
19087;SDS011;9676;50.916;13.352;2023-08-30T01:06:10;10.00;;;9.10;;
19087;SDS011;9676;50.916;13.352;2023-08-30T01:09:00;10.20;;;9.20;;
19087;SDS011;9676;50.916;13.352;2023-08-30T01:11:52;10.73;;;9.80;;
19087;SDS011;9676;50.916;13.352;2023-08-30T01:14:51;10.30;;;9.40;;
19087;SDS011;9676;50.916;13.352;2023-08-30T01:17:46;10.40;;;9.50;;
19087;SDS011;9676;50.916;13.352;2023-08-30T01:20:39;9.87;;;9.07;;
19087;SDS011;9676;50.916;13.352;2023-08-30T01:23:35;10.20;;;9.30;;
19087;SDS011;9676;50.916;13.352;2023-08-30T01:26:36;10.07;;;9.20;;
19087;SDS011;9676;50.916;13.352;2023-08-30T01:29:34;10.10;;;9.20;;
19087;SDS011;9676;50.916;13.352;2023-08-30T01:32:26;9.90;;;9.03;;
19087;SDS011;9676;50.916;13.352;2023-08-30T01:35:18;15.30;;;9.70;;
19087;SDS011;9676;50.916;13.352;2023-08-30T01:38:09;10.27;;;9.37;;
19087;SDS011;9676;50.916;13.352;2023-08-30T01:40:59;10.07;;;9.17;;
19087;SDS011;9676;50.916;13.352;2023-08-30T01:43:49;10.20;;;9.30;;
19087;SDS011;9676;50.916;13.352;2023-08-30T01:46:41;12.60;;;9.40;;
19087;SDS011;9676;50.916;13.352;2023-08-30T01:49:33;9.57;;;8.77;;
19087;SDS011;9676;50.916;13.352;2023-08-30T01:52:24;10.07;;;9.20;;
19087;SDS011;9676;50.916;13.352;2023-08-30T01:55:15;10.13;;;9.23;;
19087;SDS011;9676;50.916;13.352;2023-08-30T01:58:09;9.87;;;9.07;;
19087;SDS011;9676;50.916;13.352;2023-08-30T02:00:59;9.97;;;9.17;;
19087;SDS011;9676;50.916;13.352;2023-08-30T02:03:50;10.20;;;9.20;;
19087;SDS011;9676;50.916;13.352;2023-08-30T02:06:42;10.00;;;9.10;;
19087;SDS011;9676;50.916;13.352;2023-08-30T02:09:39;9.80;;;9.00;;
19087;SDS011;9676;50.916;13.352;2023-08-30T02:12:37;9.93;;;9.03;;
19087;SDS011;9676;50.916;13.352;2023-08-30T02:15:42;9.90;;;9.10;;
19087;SDS011;9676;50.916;13.352;2023-08-30T02:18:32;10.03;;;9.10;;
19087;SDS011;9676;50.916;13.352;2023-08-30T02:21:27;10.13;;;9.23;;
19087;SDS011;9676;50.916;13.352;2023-08-30T02:24:16;10.10;;;9.17;;
19087;SDS011;9676;50.916;13.352;2023-08-30T02:27:06;10.27;;;9.37;;
19087;SDS011;9676;50.916;13.352;2023-08-30T02:29:55;9.90;;;9.10;;
19087;SDS011;9676;50.916;13.352;2023-08-30T02:32:45;9.93;;;9.13;;
19087;SDS011;9676;50.916;13.352;2023-08-30T02:35:36;10.20;;;9.30;;
19087;SDS011;9676;50.916;13.352;2023-08-30T02:38:27;10.50;;;9.60;;
19087;SDS011;9676;50.916;13.352;2023-08-30T02:41:16;10.20;;;9.30;;
19087;SDS011;9676;50.916;13.352;2023-08-30T02:44:08;10.60;;;9.60;;
19087;SDS011;9676;50.916;13.352;2023-08-30T02:47:01;10.50;;;9.17;;
19087;SDS011;9676;50.916;13.352;2023-08-30T02:49:53;10.37;;;9.47;;
19087;SDS011;9676;50.916;13.352;2023-08-30T02:52:42;10.30;;;9.40;;
19087;SDS011;9676;50.916;13.352;2023-08-30T02:55:33;10.03;;;9.23;;
19087;SDS011;9676;50.916;13.352;2023-08-30T02:58:22;10.10;;;9.20;;
19087;SDS011;9676;50.916;13.352;2023-08-30T03:01:18;10.30;;;9.30;;
19087;SDS011;9676;50.916;13.352;2023-08-30T03:04:09;10.60;;;9.50;;
19087;SDS011;9676;50.916;13.352;2023-08-30T03:06:58;10.70;;;9.70;;
19087;SDS011;9676;50.916;13.352;2023-08-30T03:09:51;10.57;;;9.50;;
19087;SDS011;9676;50.916;13.352;2023-08-30T03:12:42;10.90;;;9.90;;
19087;SDS011;9676;50.916;13.352;2023-08-30T03:15:32;10.83;;;9.90;;
19087;SDS011;9676;50.916;13.352;2023-08-30T03:18:22;10.57;;;9.67;;
19087;SDS011;9676;50.916;13.352;2023-08-30T03:21:12;10.50;;;9.60;;
19087;SDS011;9676;50.916;13.352;2023-08-30T03:24:02;10.70;;;9.80;;
19087;SDS011;9676;50.916;13.352;2023-08-30T03:26:53;10.90;;;9.90;;
19087;SDS011;9676;50.916;13.352;2023-08-30T03:29:44;10.87;;;9.87;;
19087;SDS011;9676;50.916;13.352;2023-08-30T03:32:33;10.80;;;9.80;;
19087;SDS011;9676;50.916;13.352;2023-08-30T03:35:24;10.60;;;9.50;;
19087;SDS011;9676;50.916;13.352;2023-08-30T03:38:13;10.60;;;9.70;;
19087;SDS011;9676;50.916;13.352;2023-08-30T03:41:04;11.40;;;10.30;;
19087;SDS011;9676;50.916;13.352;2023-08-30T03:43:53;12.67;;;9.87;;
19087;SDS011;9676;50.916;13.352;2023-08-30T03:46:45;11.20;;;10.20;;
19087;SDS011;9676;50.916;13.352;2023-08-30T03:49:35;11.10;;;10.10;;
19087;SDS011;9676;50.916;13.352;2023-08-30T03:52:26;10.37;;;9.47;;
19087;SDS011;9676;50.916;13.352;2023-08-30T03:55:16;10.93;;;9.90;;
19087;SDS011;9676;50.916;13.352;2023-08-30T03:58:05;11.30;;;10.30;;
19087;SDS011;9676;50.916;13.352;2023-08-30T04:00:56;10.97;;;9.97;;
19087;SDS011;9676;50.916;13.352;2023-08-30T04:03:47;11.17;;;10.17;;
19087;SDS011;9676;50.916;13.352;2023-08-30T04:06:36;11.57;;;10.50;;
19087;SDS011;9676;50.916;13.352;2023-08-30T04:09:26;11.10;;;10.10;;
19087;SDS011;9676;50.916;13.352;2023-08-30T04:12:15;11.20;;;10.10;;
19087;SDS011;9676;50.916;13.352;2023-08-30T04:15:05;11.00;;;10.00;;
19087;SDS011;9676;50.916;13.352;2023-08-30T04:17:56;11.40;;;10.40;;
19087;SDS011;9676;50.916;13.352;2023-08-30T04:20:46;10.97;;;10.03;;
19087;SDS011;9676;50.916;13.352;2023-08-30T04:23:36;11.33;;;10.23;;
19087;SDS011;9676;50.916;13.352;2023-08-30T04:26:25;11.00;;;10.00;;
19087;SDS011;9676;50.916;13.352;2023-08-30T04:29:16;11.70;;;10.13;;
19087;SDS011;9676;50.916;13.352;2023-08-30T04:32:05;10.93;;;10.03;;
19087;SDS011;9676;50.916;13.352;2023-08-30T04:34:56;11.20;;;10.20;;
19087;SDS011;9676;50.916;13.352;2023-08-30T04:37:46;11.00;;;10.00;;
19087;SDS011;9676;50.916;13.352;2023-08-30T04:40:36;11.27;;;10.27;;
19087;SDS011;9676;50.916;13.352;2023-08-30T04:43:26;11.60;;;10.60;;
19087;SDS011;9676;50.916;13.352;2023-08-30T04:46:15;11.20;;;10.10;;
19087;SDS011;9676;50.916;13.352;2023-08-30T04:49:04;10.87;;;9.87;;
19087;SDS011;9676;50.916;13.352;2023-08-30T04:51:54;11.57;;;10.47;;
19087;SDS011;9676;50.916;13.352;2023-08-30T04:54:45;11.47;;;10.47;;
19087;SDS011;9676;50.916;13.352;2023-08-30T04:57:36;11.50;;;10.40;;
19087;SDS011;9676;50.916;13.352;2023-08-30T05:00:25;11.47;;;10.43;;
19087;SDS011;9676;50.916;13.352;2023-08-30T05:03:15;11.43;;;10.43;;
19087;SDS011;9676;50.916;13.352;2023-08-30T05:06:04;11.67;;;10.57;;
19087;SDS011;9676;50.916;13.352;2023-08-30T05:08:54;11.77;;;10.67;;
19087;SDS011;9676;50.916;13.352;2023-08-30T05:11:44;11.57;;;10.57;;
19087;SDS011;9676;50.916;13.352;2023-08-30T05:14:34;11.93;;;10.87;;
19087;SDS011;9676;50.916;13.352;2023-08-30T05:17:23;12.10;;;11.00;;
19087;SDS011;9676;50.916;13.352;2023-08-30T05:20:13;12.10;;;11.00;;
19087;SDS011;9676;50.916;13.352;2023-08-30T05:23:03;15.47;;;13.87;;
19087;SDS011;9676;50.916;13.352;2023-08-30T05:25:52;14.23;;;12.80;;
19087;SDS011;9676;50.916;13.352;2023-08-30T05:28:43;13.63;;;12.20;;
19087;SDS011;9676;50.916;13.352;2023-08-30T05:31:33;13.97;;;12.47;;
19087;SDS011;9676;50.916;13.352;2023-08-30T05:34:42;13.10;;;11.90;;
19087;SDS011;9676;50.916;13.352;2023-08-30T05:37:44;12.87;;;11.67;;
19087;SDS011;9676;50.916;13.352;2023-08-30T05:40:55;12.67;;;11.53;;
19087;SDS011;9676;50.916;13.352;2023-08-30T05:43:46;12.73;;;11.53;;
19087;SDS011;9676;50.916;13.352;2023-08-30T05:46:35;12.90;;;11.70;;
19087;SDS011;9676;50.916;13.352;2023-08-30T05:49:25;13.13;;;11.90;;
19087;SDS011;9676;50.916;13.352;2023-08-30T05:52:14;21.33;;;12.27;;
19087;SDS011;9676;50.916;13.352;2023-08-30T05:55:05;12.90;;;11.73;;
19087;SDS011;9676;50.916;13.352;2023-08-30T05:57:55;14.03;;;12.73;;
19087;SDS011;9676;50.916;13.352;2023-08-30T06:00:46;13.80;;;12.50;;
19087;SDS011;9676;50.916;13.352;2023-08-30T06:03:36;13.07;;;11.87;;
19087;SDS011;9676;50.916;13.352;2023-08-30T06:06:25;13.87;;;12.57;;
19087;SDS011;9676;50.916;13.352;2023-08-30T06:09:15;13.53;;;12.13;;
19087;SDS011;9676;50.916;13.352;2023-08-30T06:12:05;12.60;;;11.50;;
19087;SDS011;9676;50.916;13.352;2023-08-30T06:14:56;18.63;;;11.80;;
19087;SDS011;9676;50.916;13.352;2023-08-30T06:17:46;12.73;;;11.53;;
19087;SDS011;9676;50.916;13.352;2023-08-30T06:20:39;13.50;;;12.20;;
19087;SDS011;9676;50.916;13.352;2023-08-30T06:23:29;12.43;;;11.30;;
19087;SDS011;9676;50.916;13.352;2023-08-30T06:26:18;13.60;;;12.30;;
19087;SDS011;9676;50.916;13.352;2023-08-30T06:29:08;13.03;;;11.83;;
19087;SDS011;9676;50.916;13.352;2023-08-30T06:31:57;12.43;;;11.23;;
19087;SDS011;9676;50.916;13.352;2023-08-30T06:34:48;12.80;;;11.53;;
19087;SDS011;9676;50.916;13.352;2023-08-30T06:37:37;13.33;;;12.03;;
19087;SDS011;9676;50.916;13.352;2023-08-30T06:40:27;12.40;;;11.30;;
19087;SDS011;9676;50.916;13.352;2023-08-30T06:43:16;12.17;;;10.97;;
19087;SDS011;9676;50.916;13.352;2023-08-30T06:46:06;13.33;;;11.93;;
19087;SDS011;9676;50.916;13.352;2023-08-30T06:48:55;12.73;;;11.53;;
19087;SDS011;9676;50.916;13.352;2023-08-30T06:51:46;12.47;;;11.23;;
19087;SDS011;9676;50.916;13.352;2023-08-30T06:54:36;11.80;;;10.70;;
19087;SDS011;9676;50.916;13.352;2023-08-30T06:57:25;12.17;;;11.00;;
19087;SDS011;9676;50.916;13.352;2023-08-30T07:00:14;12.30;;;11.20;;
19087;SDS011;9676;50.916;13.352;2023-08-30T07:03:05;11.70;;;10.70;;
19087;SDS011;9676;50.916;13.352;2023-08-30T07:05:54;11.67;;;10.67;;
19087;SDS011;9676;50.916;13.352;2023-08-30T07:08:45;12.13;;;11.00;;
19087;SDS011;9676;50.916;13.352;2023-08-30T07:11:34;12.23;;;11.00;;
19087;SDS011;9676;50.916;13.352;2023-08-30T07:14:24;12.03;;;10.93;;
19087;SDS011;9676;50.916;13.352;2023-08-30T07:17:13;12.93;;;11.60;;
19087;SDS011;9676;50.916;13.352;2023-08-30T07:20:03;13.00;;;10.87;;
19087;SDS011;9676;50.916;13.352;2023-08-30T07:22:55;13.00;;;11.67;;
19087;SDS011;9676;50.916;13.352;2023-08-30T07:25:46;12.37;;;11.17;;
19087;SDS011;9676;50.916;13.352;2023-08-30T07:28:35;12.00;;;10.90;;
19087;SDS011;9676;50.916;13.352;2023-08-30T07:31:25;12.47;;;11.17;;
19087;SDS011;9676;50.916;13.352;2023-08-30T07:34:14;12.10;;;11.00;;
19087;SDS011;9676;50.916;13.352;2023-08-30T07:37:04;12.30;;;11.20;;
19087;SDS011;9676;50.916;13.352;2023-08-30T07:39:53;11.90;;;10.77;;
19087;SDS011;9676;50.916;13.352;2023-08-30T07:42:44;12.00;;;10.90;;
19087;SDS011;9676;50.916;13.352;2023-08-30T07:45:33;12.50;;;11.20;;
19087;SDS011;9676;50.916;13.352;2023-08-30T07:48:23;12.60;;;11.40;;
19087;SDS011;9676;50.916;13.352;2023-08-30T07:51:12;12.60;;;11.20;;
19087;SDS011;9676;50.916;13.352;2023-08-30T07:54:01;12.33;;;11.13;;
19087;SDS011;9676;50.916;13.352;2023-08-30T07:56:52;12.10;;;10.97;;
19087;SDS011;9676;50.916;13.352;2023-08-30T07:59:43;13.70;;;11.10;;
19087;SDS011;9676;50.916;13.352;2023-08-30T08:02:32;11.67;;;10.57;;
19087;SDS011;9676;50.916;13.352;2023-08-30T08:05:21;11.30;;;10.30;;
19087;SDS011;9676;50.916;13.352;2023-08-30T08:08:11;13.30;;;10.67;;
19087;SDS011;9676;50.916;13.352;2023-08-30T08:11:02;12.27;;;11.07;;
19087;SDS011;9676;50.916;13.352;2023-08-30T08:13:52;11.43;;;10.33;;
19087;SDS011;9676;50.916;13.352;2023-08-30T08:16:42;11.30;;;10.30;;
19087;SDS011;9676;50.916;13.352;2023-08-30T08:19:32;11.27;;;10.17;;
19087;SDS011;9676;50.916;13.352;2023-08-30T08:22:26;11.63;;;10.53;;
19087;SDS011;9676;50.916;13.352;2023-08-30T08:25:15;11.23;;;10.23;;
19087;SDS011;9676;50.916;13.352;2023-08-30T08:28:05;11.33;;;10.33;;
19087;SDS011;9676;50.916;13.352;2023-08-30T08:30:55;11.40;;;10.30;;
19087;SDS011;9676;50.916;13.352;2023-08-30T08:33:46;11.17;;;10.07;;
19087;SDS011;9676;50.916;13.352;2023-08-30T08:36:38;11.23;;;10.23;;
19087;SDS011;9676;50.916;13.352;2023-08-30T08:39:30;11.00;;;10.00;;
19087;SDS011;9676;50.916;13.352;2023-08-30T08:42:19;11.00;;;9.90;;
19087;SDS011;9676;50.916;13.352;2023-08-30T08:45:09;10.70;;;9.70;;
19087;SDS011;9676;50.916;13.352;2023-08-30T08:48:00;11.00;;;10.00;;
19087;SDS011;9676;50.916;13.352;2023-08-30T08:50:53;10.90;;;9.77;;
19087;SDS011;9676;50.916;13.352;2023-08-30T08:53:43;10.80;;;9.80;;
19087;SDS011;9676;50.916;13.352;2023-08-30T08:56:33;10.90;;;9.80;;
19087;SDS011;9676;50.916;13.352;2023-08-30T08:59:22;10.93;;;9.87;;
19087;SDS011;9676;50.916;13.352;2023-08-30T09:02:14;10.80;;;9.80;;
19087;SDS011;9676;50.916;13.352;2023-08-30T09:05:04;10.73;;;9.73;;
19087;SDS011;9676;50.916;13.352;2023-08-30T09:07:55;10.53;;;9.57;;
19087;SDS011;9676;50.916;13.352;2023-08-30T09:10:45;10.27;;;9.33;;
19087;SDS011;9676;50.916;13.352;2023-08-30T09:13:38;10.50;;;9.40;;
19087;SDS011;9676;50.916;13.352;2023-08-30T09:16:27;10.00;;;9.10;;
19087;SDS011;9676;50.916;13.352;2023-08-30T09:19:19;10.43;;;9.30;;
19087;SDS011;9676;50.916;13.352;2023-08-30T09:22:09;9.90;;;8.90;;
19087;SDS011;9676;50.916;13.352;2023-08-30T09:25:00;9.20;;;8.40;;
19087;SDS011;9676;50.916;13.352;2023-08-30T09:27:49;9.40;;;8.60;;
19087;SDS011;9676;50.916;13.352;2023-08-30T09:30:38;11.87;;;8.70;;
19087;SDS011;9676;50.916;13.352;2023-08-30T09:33:31;9.03;;;8.23;;
19087;SDS011;9676;50.916;13.352;2023-08-30T09:36:22;11.90;;;8.03;;
19087;SDS011;9676;50.916;13.352;2023-08-30T09:39:11;8.80;;;8.10;;
19087;SDS011;9676;50.916;13.352;2023-08-30T09:42:04;8.53;;;7.83;;
19087;SDS011;9676;50.916;13.352;2023-08-30T09:44:53;8.60;;;7.90;;
19087;SDS011;9676;50.916;13.352;2023-08-30T09:47:45;8.15;;;7.55;;
19087;SDS011;9676;50.916;13.352;2023-08-30T09:50:36;8.10;;;7.40;;
19087;SDS011;9676;50.916;13.352;2023-08-30T09:53:27;7.97;;;7.38;;
19087;SDS011;9676;50.916;13.352;2023-08-30T09:56:21;8.15;;;7.55;;
19087;SDS011;9676;50.916;13.352;2023-08-30T09:59:13;8.30;;;7.60;;
19087;SDS011;9676;50.916;13.352;2023-08-30T10:02:03;8.07;;;7.47;;
19087;SDS011;9676;50.916;13.352;2023-08-30T10:04:54;8.40;;;7.70;;
19087;SDS011;9676;50.916;13.352;2023-08-30T10:07:45;8.02;;;7.45;;
19087;SDS011;9676;50.916;13.352;2023-08-30T10:10:35;8.50;;;7.90;;
19087;SDS011;9676;50.916;13.352;2023-08-30T10:13:26;8.60;;;7.90;;
19087;SDS011;9676;50.916;13.352;2023-08-30T10:16:19;8.10;;;7.50;;
19087;SDS011;9676;50.916;13.352;2023-08-30T10:19:14;7.90;;;7.30;;
19087;SDS011;9676;50.916;13.352;2023-08-30T10:22:09;8.50;;;7.80;;
19087;SDS011;9676;50.916;13.352;2023-08-30T10:25:04;8.43;;;7.57;;
19087;SDS011;9676;50.916;13.352;2023-08-30T10:27:58;8.30;;;7.60;;
19087;SDS011;9676;50.916;13.352;2023-08-30T10:30:48;8.30;;;7.60;;
19087;SDS011;9676;50.916;13.352;2023-08-30T10:33:47;8.27;;;7.67;;
19087;SDS011;9676;50.916;13.352;2023-08-30T10:36:37;8.33;;;7.63;;
19087;SDS011;9676;50.916;13.352;2023-08-30T10:39:32;8.57;;;7.90;;
19087;SDS011;9676;50.916;13.352;2023-08-30T10:42:24;8.40;;;7.70;;
19087;SDS011;9676;50.916;13.352;2023-08-30T10:45:13;8.18;;;7.57;;
19087;SDS011;9676;50.916;13.352;2023-08-30T10:48:03;8.60;;;7.90;;
19087;SDS011;9676;50.916;13.352;2023-08-30T10:50:55;8.00;;;7.40;;
19087;SDS011;9676;50.916;13.352;2023-08-30T10:53:54;7.75;;;7.20;;
19087;SDS011;9676;50.916;13.352;2023-08-30T10:56:45;8.27;;;7.60;;
19087;SDS011;9676;50.916;13.352;2023-08-30T10:59:36;8.27;;;7.57;;
19087;SDS011;9676;50.916;13.352;2023-08-30T11:02:25;8.43;;;7.72;;
19087;SDS011;9676;50.916;13.352;2023-08-30T11:05:15;7.85;;;7.18;;
19087;SDS011;9676;50.916;13.352;2023-08-30T11:08:11;8.00;;;7.50;;
19087;SDS011;9676;50.916;13.352;2023-08-30T11:11:02;7.93;;;7.40;;
19087;SDS011;9676;50.916;13.352;2023-08-30T11:13:53;8.13;;;7.43;;
19087;SDS011;9676;50.916;13.352;2023-08-30T11:16:42;7.97;;;7.33;;
19087;SDS011;9676;50.916;13.352;2023-08-30T11:19:32;8.53;;;7.80;;
19087;SDS011;9676;50.916;13.352;2023-08-30T11:22:22;8.63;;;7.90;;
19087;SDS011;9676;50.916;13.352;2023-08-30T11:25:13;8.63;;;7.93;;
19087;SDS011;9676;50.916;13.352;2023-08-30T11:28:04;8.93;;;8.17;;
19087;SDS011;9676;50.916;13.352;2023-08-30T11:30:54;9.30;;;8.40;;
19087;SDS011;9676;50.916;13.352;2023-08-30T11:33:49;9.37;;;8.23;;
19087;SDS011;9676;50.916;13.352;2023-08-30T11:36:40;9.13;;;8.20;;
19087;SDS011;9676;50.916;13.352;2023-08-30T11:39:29;9.30;;;8.30;;
19087;SDS011;9676;50.916;13.352;2023-08-30T11:42:20;9.30;;;8.50;;
19087;SDS011;9676;50.916;13.352;2023-08-30T11:45:10;12.03;;;8.70;;
19087;SDS011;9676;50.916;13.352;2023-08-30T11:48:03;9.30;;;8.50;;
19087;SDS011;9676;50.916;13.352;2023-08-30T11:50:56;9.40;;;8.50;;
19087;SDS011;9676;50.916;13.352;2023-08-30T11:53:46;9.87;;;8.87;;
19087;SDS011;9676;50.916;13.352;2023-08-30T11:56:36;9.40;;;8.50;;
19087;SDS011;9676;50.916;13.352;2023-08-30T11:59:27;9.20;;;8.40;;
19087;SDS011;9676;50.916;13.352;2023-08-30T12:02:17;9.63;;;8.63;;
19087;SDS011;9676;50.916;13.352;2023-08-30T12:05:10;9.47;;;8.63;;
19087;SDS011;9676;50.916;13.352;2023-08-30T12:07:59;9.40;;;8.60;;
19087;SDS011;9676;50.916;13.352;2023-08-30T12:10:50;9.60;;;8.70;;
19087;SDS011;9676;50.916;13.352;2023-08-30T12:13:40;9.60;;;8.60;;
19087;SDS011;9676;50.916;13.352;2023-08-30T12:16:31;9.63;;;8.73;;
19087;SDS011;9676;50.916;13.352;2023-08-30T12:19:20;9.30;;;8.50;;
19087;SDS011;9676;50.916;13.352;2023-08-30T12:22:10;9.67;;;8.67;;
19087;SDS011;9676;50.916;13.352;2023-08-30T12:24:59;9.57;;;8.67;;
19087;SDS011;9676;50.916;13.352;2023-08-30T12:27:50;9.40;;;8.60;;
19087;SDS011;9676;50.916;13.352;2023-08-30T12:30:40;9.67;;;8.77;;
19087;SDS011;9676;50.916;13.352;2023-08-30T12:33:31;9.77;;;8.87;;
19087;SDS011;9676;50.916;13.352;2023-08-30T12:36:21;9.50;;;8.60;;
19087;SDS011;9676;50.916;13.352;2023-08-30T12:39:12;9.73;;;8.73;;
19087;SDS011;9676;50.916;13.352;2023-08-30T12:42:01;9.50;;;8.60;;
19087;SDS011;9676;50.916;13.352;2023-08-30T12:44:51;9.70;;;8.80;;
19087;SDS011;9676;50.916;13.352;2023-08-30T12:47:40;9.70;;;8.80;;
19087;SDS011;9676;50.916;13.352;2023-08-30T12:50:31;10.20;;;8.50;;
19087;SDS011;9676;50.916;13.352;2023-08-30T12:53:20;9.47;;;8.67;;
19087;SDS011;9676;50.916;13.352;2023-08-30T12:56:09;9.57;;;8.67;;
19087;SDS011;9676;50.916;13.352;2023-08-30T12:58:59;9.57;;;8.67;;
19087;SDS011;9676;50.916;13.352;2023-08-30T13:01:48;9.47;;;8.67;;
19087;SDS011;9676;50.916;13.352;2023-08-30T13:04:37;9.57;;;8.60;;
19087;SDS011;9676;50.916;13.352;2023-08-30T13:07:28;9.70;;;8.80;;
19087;SDS011;9676;50.916;13.352;2023-08-30T13:10:21;9.90;;;8.90;;
19087;SDS011;9676;50.916;13.352;2023-08-30T13:13:10;9.40;;;8.60;;
19087;SDS011;9676;50.916;13.352;2023-08-30T13:16:00;9.27;;;8.47;;
19087;SDS011;9676;50.916;13.352;2023-08-30T13:18:50;9.30;;;8.50;;
19087;SDS011;9676;50.916;13.352;2023-08-30T13:21:39;9.40;;;8.60;;
19087;SDS011;9676;50.916;13.352;2023-08-30T13:24:31;9.70;;;8.70;;
19087;SDS011;9676;50.916;13.352;2023-08-30T13:27:21;9.90;;;8.90;;
19087;SDS011;9676;50.916;13.352;2023-08-30T13:30:10;9.40;;;8.60;;
19087;SDS011;9676;50.916;13.352;2023-08-30T13:33:00;9.70;;;8.80;;
19087;SDS011;9676;50.916;13.352;2023-08-30T13:35:50;9.53;;;8.63;;
19087;SDS011;9676;50.916;13.352;2023-08-30T13:38:40;9.73;;;8.83;;
19087;SDS011;9676;50.916;13.352;2023-08-30T13:41:30;9.37;;;8.57;;
19087;SDS011;9676;50.916;13.352;2023-08-30T13:44:20;9.50;;;8.60;;
19087;SDS011;9676;50.916;13.352;2023-08-30T13:47:10;9.60;;;8.70;;
19087;SDS011;9676;50.916;13.352;2023-08-30T13:50:00;9.50;;;8.70;;
19087;SDS011;9676;50.916;13.352;2023-08-30T13:52:51;9.60;;;8.70;;
19087;SDS011;9676;50.916;13.352;2023-08-30T13:55:40;9.50;;;8.60;;
19087;SDS011;9676;50.916;13.352;2023-08-30T13:58:37;9.60;;;8.70;;
19087;SDS011;9676;50.916;13.352;2023-08-30T14:01:26;9.90;;;8.60;;
19087;SDS011;9676;50.916;13.352;2023-08-30T14:04:16;9.40;;;8.60;;
19087;SDS011;9676;50.916;13.352;2023-08-30T14:07:05;9.70;;;8.80;;
19087;SDS011;9676;50.916;13.352;2023-08-30T14:09:54;9.57;;;8.70;;
19087;SDS011;9676;50.916;13.352;2023-08-30T14:12:45;9.40;;;8.60;;
19087;SDS011;9676;50.916;13.352;2023-08-30T14:15:35;9.50;;;8.60;;
19087;SDS011;9676;50.916;13.352;2023-08-30T14:18:25;9.70;;;8.80;;
19087;SDS011;9676;50.916;13.352;2023-08-30T14:21:14;9.33;;;8.53;;
19087;SDS011;9676;50.916;13.352;2023-08-30T14:24:04;9.80;;;8.90;;
19087;SDS011;9676;50.916;13.352;2023-08-30T14:26:54;9.60;;;8.70;;
19087;SDS011;9676;50.916;13.352;2023-08-30T14:29:43;9.47;;;8.57;;
19087;SDS011;9676;50.916;13.352;2023-08-30T14:32:34;9.30;;;8.50;;
19087;SDS011;9676;50.916;13.352;2023-08-30T14:35:23;9.97;;;9.07;;
19087;SDS011;9676;50.916;13.352;2023-08-30T14:38:13;9.60;;;8.70;;
19087;SDS011;9676;50.916;13.352;2023-08-30T14:41:02;12.73;;;8.93;;
19087;SDS011;9676;50.916;13.352;2023-08-30T14:43:52;9.80;;;8.90;;
19087;SDS011;9676;50.916;13.352;2023-08-30T14:46:41;9.90;;;9.00;;
19087;SDS011;9676;50.916;13.352;2023-08-30T14:49:32;10.13;;;9.03;;
19087;SDS011;9676;50.916;13.352;2023-08-30T14:52:21;10.53;;;9.10;;
19087;SDS011;9676;50.916;13.352;2023-08-30T14:55:11;10.07;;;9.07;;
19087;SDS011;9676;50.916;13.352;2023-08-30T14:58:01;9.77;;;8.87;;
19087;SDS011;9676;50.916;13.352;2023-08-30T15:00:51;10.00;;;9.10;;
19087;SDS011;9676;50.916;13.352;2023-08-30T15:03:40;9.43;;;8.63;;
19087;SDS011;9676;50.916;13.352;2023-08-30T15:06:31;9.80;;;8.80;;
19087;SDS011;9676;50.916;13.352;2023-08-30T15:09:20;9.60;;;8.73;;
19087;SDS011;9676;50.916;13.352;2023-08-30T15:12:10;9.87;;;8.97;;
19087;SDS011;9676;50.916;13.352;2023-08-30T15:14:59;9.93;;;9.03;;
19087;SDS011;9676;50.916;13.352;2023-08-30T15:17:49;9.80;;;8.90;;
19087;SDS011;9676;50.916;13.352;2023-08-30T15:20:38;9.47;;;8.67;;
19087;SDS011;9676;50.916;13.352;2023-08-30T15:23:29;9.90;;;9.00;;
19087;SDS011;9676;50.916;13.352;2023-08-30T15:26:18;9.97;;;8.97;;
19087;SDS011;9676;50.916;13.352;2023-08-30T15:29:08;9.80;;;8.90;;
19087;SDS011;9676;50.916;13.352;2023-08-30T15:31:58;9.80;;;8.80;;
19087;SDS011;9676;50.916;13.352;2023-08-30T15:34:48;10.10;;;9.00;;
19087;SDS011;9676;50.916;13.352;2023-08-30T15:37:37;10.13;;;9.17;;
19087;SDS011;9676;50.916;13.352;2023-08-30T15:40:28;9.93;;;9.03;;
19087;SDS011;9676;50.916;13.352;2023-08-30T15:43:18;9.90;;;9.00;;
19087;SDS011;9676;50.916;13.352;2023-08-30T15:46:08;10.17;;;9.27;;
19087;SDS011;9676;50.916;13.352;2023-08-30T15:48:59;9.90;;;9.00;;
19087;SDS011;9676;50.916;13.352;2023-08-30T15:51:48;10.00;;;9.00;;
19087;SDS011;9676;50.916;13.352;2023-08-30T15:54:38;9.90;;;9.00;;
19087;SDS011;9676;50.916;13.352;2023-08-30T15:57:29;9.77;;;8.87;;
19087;SDS011;9676;50.916;13.352;2023-08-30T16:00:18;9.70;;;8.80;;
19087;SDS011;9676;50.916;13.352;2023-08-30T16:03:09;10.07;;;9.17;;
19087;SDS011;9676;50.916;13.352;2023-08-30T16:05:59;9.90;;;8.90;;
19087;SDS011;9676;50.916;13.352;2023-08-30T16:08:49;10.10;;;9.10;;
19087;SDS011;9676;50.916;13.352;2023-08-30T16:11:38;10.73;;;9.03;;
19087;SDS011;9676;50.916;13.352;2023-08-30T16:14:29;9.60;;;8.80;;
19087;SDS011;9676;50.916;13.352;2023-08-30T16:17:18;9.83;;;8.83;;
19087;SDS011;9676;50.916;13.352;2023-08-30T16:20:08;10.27;;;9.20;;
19087;SDS011;9676;50.916;13.352;2023-08-30T16:22:59;9.83;;;8.93;;
19087;SDS011;9676;50.916;13.352;2023-08-30T16:25:48;10.00;;;9.10;;
19087;SDS011;9676;50.916;13.352;2023-08-30T16:28:38;9.97;;;8.97;;
19087;SDS011;9676;50.916;13.352;2023-08-30T16:31:32;9.90;;;9.00;;
19087;SDS011;9676;50.916;13.352;2023-08-30T16:34:22;11.30;;;9.30;;
19087;SDS011;9676;50.916;13.352;2023-08-30T16:37:11;10.17;;;9.20;;
19087;SDS011;9676;50.916;13.352;2023-08-30T16:40:01;10.37;;;9.33;;
19087;SDS011;9676;50.916;13.352;2023-08-30T16:42:50;10.30;;;9.23;;
19087;SDS011;9676;50.916;13.352;2023-08-30T16:45:40;10.67;;;9.63;;
19087;SDS011;9676;50.916;13.352;2023-08-30T16:48:31;10.53;;;9.43;;
19087;SDS011;9676;50.916;13.352;2023-08-30T16:51:20;10.37;;;9.37;;
19087;SDS011;9676;50.916;13.352;2023-08-30T16:54:10;10.53;;;9.53;;